Time;durP1;ratioP1;P1;durP2;ratioP2;P2;SDS_P1;SDS_P2;PMS_P1;PMS_P2;Temp;Humidity;BMP_temperature;BMP_pressure;BME280_temperature;BME280_humidity;BME280_pressure;Samples;Min_cycle;Max_cycle;Signal;HPM_P1;HPM_P2
2021/06/28 00:01:19;;;;;;;11.65;7.57;;;;;;;;;;5099038;28;20032;-86
2021/06/28 00:03:47;;;;;;;14.00;8.82;;;;;;;;;;5103141;28;20043;-84
2021/06/28 00:06:14;;;;;;;8.30;4.93;;;;;;;;;;5089877;28;20666;-84
2021/06/28 00:08:41;;;;;;;9.75;6.25;;;;;;;;;;5086273;28;20048;-83
2021/06/28 00:11:08;;;;;;;18.10;12.05;;;;;;;;;;5059007;28;20075;-87
2021/06/28 00:13:36;;;;;;;13.73;12.32;;;;;;;;;;5092589;28;20068;-84
2021/06/28 00:16:02;;;;;;;4.28;2.97;;;;;;;;;;5006844;28;21665;-86
2021/06/28 00:18:29;;;;;;;9.63;5.30;;;;;;;;;;4985738;28;101406;-86
2021/06/28 00:20:56;;;;;;;8.02;5.07;;;;;;;;;;5078853;28;20043;-86
2021/06/28 00:23:23;;;;;;;7.53;4.03;;;;;;;;;;5081084;28;20131;-85
2021/06/28 00:25:49;;;;;;;10.77;6.75;;;;;;;;;;5077480;28;20036;-85
2021/06/28 00:28:16;;;;;;;12.25;7.90;;;;;;;;;;5079492;28;20078;-87
2021/06/28 00:30:43;;;;;;;8.85;6.25;;;;;;;;;;5079972;28;20211;-86
2021/06/28 00:33:11;;;;;;;8.85;5.57;;;;;;;;;;5080988;28;20028;-85
2021/06/28 00:35:39;;;;;;;10.88;7.93;;;;;;;;;;5055797;28;20122;-87
2021/06/28 00:38:06;;;;;;;9.95;5.95;;;;;;;;;;5081743;28;20058;-90
2021/06/28 00:40:34;;;;;;;8.98;5.88;;;;;;;;;;5082129;28;20032;-87
2021/06/28 00:43:01;;;;;;;8.30;5.35;;;;;;;;;;5080336;28;20462;-89
2021/06/28 00:45:31;;;;;;;7.35;5.22;;;;;;;;;;5064033;28;20098;-84
2021/06/28 00:47:59;;;;;;;5.18;3.50;;;;;;;;;;5073380;28;20039;-85
2021/06/28 00:50:26;;;;;;;7.68;5.50;;;;;;;;;;5079172;28;20081;-87
2021/06/28 00:52:54;;;;;;;4.97;3.63;;;;;;;;;;5063725;28;20032;-88
2021/06/28 00:55:21;;;;;;;6.55;3.38;;;;;;;;;;5078949;28;20506;-88
2021/06/28 00:57:48;;;;;;;6.15;3.55;;;;;;;;;;5081032;28;20044;-88
2021/06/28 01:00:16;;;;;;;7.07;3.72;;;;;;;;;;5081785;28;20082;-83
2021/06/28 01:02:46;;;;;;;7.22;4.07;;;;;;;;;;5079405;28;20031;-84
2021/06/28 01:05:22;;;;;;;8.05;5.00;;;;;;;;;;5072828;28;20126;-85
2021/06/28 01:07:51;;;;;;;13.10;4.70;;;;;;;;;;5079627;28;20163;-88
2021/06/28 01:10:20;;;;;;;7.35;4.50;;;;;;;;;;5082509;28;20047;-87
2021/06/28 01:12:48;;;;;;;5.35;2.90;;;;;;;;;;5081712;28;20065;-91
2021/06/28 01:15:15;;;;;;;4.70;2.67;;;;;;;;;;5064263;28;20050;-84
2021/06/28 01:17:42;;;;;;;7.47;5.10;;;;;;;;;;5080265;28;20105;-87
2021/06/28 01:20:13;;;;;;;13.02;10.73;;;;;;;;;;5082649;28;20466;-88
2021/06/28 01:22:41;;;;;;;16.70;8.73;;;;;;;;;;5081271;28;20097;-87
2021/06/28 01:25:09;;;;;;;13.80;7.28;;;;;;;;;;5017829;28;20039;-89
2021/06/28 01:27:38;;;;;;;9.02;4.82;;;;;;;;;;5074581;28;20265;-89
2021/06/28 01:30:06;;;;;;;14.88;10.15;;;;;;;;;;5044862;28;92748;-86
2021/06/28 01:32:33;;;;;;;20.08;14.13;;;;;;;;;;5081089;28;20498;-80
2021/06/28 01:35:01;;;;;;;17.90;11.25;;;;;;;;;;5080349;28;20039;-89
2021/06/28 01:37:29;;;;;;;9.82;6.07;;;;;;;;;;5080615;28;20052;-89
2021/06/28 01:40:00;;;;;;;6.07;3.42;;;;;;;;;;5080302;28;20074;-84
2021/06/28 01:42:28;;;;;;;7.75;4.40;;;;;;;;;;5063356;28;20046;-89
2021/06/28 01:44:55;;;;;;;8.70;4.90;;;;;;;;;;5082359;28;20184;-86
2021/06/28 01:47:21;;;;;;;9.20;4.50;;;;;;;;;;5045305;28;20110;-85
2021/06/28 01:49:48;;;;;;;8.88;4.72;;;;;;;;;;5037821;28;20118;-86
2021/06/28 01:52:15;;;;;;;9.60;4.25;;;;;;;;;;5080791;28;20746;-88
2021/06/28 01:54:42;;;;;;;6.47;2.83;;;;;;;;;;5080071;28;20427;-87
2021/06/28 01:57:11;;;;;;;4.15;2.10;;;;;;;;;;5064185;28;20036;-88
2021/06/28 01:59:40;;;;;;;3.63;1.90;;;;;;;;;;5080410;28;20043;-86
2021/06/28 02:02:07;;;;;;;2.78;1.50;;;;;;;;;;5085750;28;20036;-87
2021/06/28 02:04:34;;;;;;;2.30;1.70;;;;;;;;;;5065577;28;20521;-88
2021/06/28 02:07:10;;;;;;;2.72;1.58;;;;;;;;;;5079869;28;20033;-88
2021/06/28 02:09:37;;;;;;;4.65;2.47;;;;;;;;;;5045289;28;20922;-87
2021/06/28 02:12:04;;;;;;;7.47;4.32;;;;;;;;;;5023297;28;21040;-88
2021/06/28 02:14:31;;;;;;;5.50;3.05;;;;;;;;;;5047668;28;110985;-88
2021/06/28 02:16:58;;;;;;;4.10;2.35;;;;;;;;;;5064125;28;21665;-89
2021/06/28 02:19:25;;;;;;;1.92;1.52;;;;;;;;;;5036742;28;20086;-89
2021/06/28 02:22:12;;;;;;;;;;;;;;;;;;4962215;27;11450;-87
2021/06/28 02:24:39;;;;;;;;;;;;;;;;;;5053596;28;4983;-88
2021/06/28 02:27:05;;;;;;;;;;;;;;;;;;5033184;28;5019;-87
2021/06/28 02:29:31;;;;;;;;;;;;;;;;;;5015280;28;4951;-89
2021/06/28 02:31:57;;;;;;;;;;;;;;;;;;5031706;28;5684;-88
2021/06/28 02:34:23;;;;;;;;;;;;;;;;;;5004512;28;4941;-88
2021/06/28 02:40:36;;;;;;;2.83;1.90;;;;;;;;;;4813908;27;2550745;-89
2021/06/28 02:43:26;;;;;;;2.92;1.77;;;;;;;;;;5005665;28;20049;-89
2021/06/28 02:45:52;;;;;;;4.20;2.75;;;;;;;;;;5003860;28;20037;-90
2021/06/28 02:48:19;;;;;;;3.15;1.70;;;;;;;;;;5008128;28;20037;-90
2021/06/28 02:50:47;;;;;;;4.50;2.60;;;;;;;;;;5006355;28;20057;-89
2021/06/28 02:55:36;;;;;;;3.75;2.25;;;;;;;;;;4929434;27;20413;-89
2021/06/28 02:58:03;;;;;;;4.07;1.65;;;;;;;;;;4870709;28;20050;-90
2021/06/28 03:00:32;;;;;;;5.57;3.75;;;;;;;;;;4826271;28;20046;-89
2021/06/28 03:03:14;;;;;;;5.75;2.60;;;;;;;;;;4764996;27;9604558;-89
2021/06/28 03:06:01;;;;;;;5.57;2.60;;;;;;;;;;5036850;28;20418;-89
2021/06/28 03:08:44;;;;;;;4.70;3.08;;;;;;;;;;5005122;28;20416;-89
2021/06/28 03:11:28;;;;;;;4.85;2.97;;;;;;;;;;5118699;27;20371;-89
2021/06/28 03:14:13;;;;;;;6.35;3.72;;;;;;;;;;5125921;27;20129;-89
2021/06/28 03:16:58;;;;;;;9.32;5.00;;;;;;;;;;5063509;27;20415;-89
2021/06/28 03:19:48;;;;;;;6.28;3.53;;;;;;;;;;5095936;27;19970;-93
2021/06/28 03:23:03;;;;;;;2.72;1.15;;;;;;;;;;5069096;27;20581;-96
2021/06/28 03:25:51;;;;;;;3.40;1.80;;;;;;;;;;5072042;27;20398;-94
2021/06/28 03:28:44;;;;;;;3.10;1.70;;;;;;;;;;4854953;27;5223749;-93
2021/06/28 03:32:26;;;;;;;2.58;1.80;;;;;;;;;;5028088;28;20409;-94
2021/06/28 03:35:10;;;;;;;2.30;1.40;;;;;;;;;;5005664;27;20509;-94
2021/06/28 03:37:51;;;;;;;1.88;1.35;;;;;;;;;;5079959;27;20938;-92
2021/06/28 03:40:37;;;;;;;4.78;2.47;;;;;;;;;;4733801;27;125351;-93
2021/06/28 03:43:18;;;;;;;1.13;0.90;;;;;;;;;;5069211;27;20385;-91
2021/06/28 03:46:00;;;;;;;2.40;1.65;;;;;;;;;;5045239;27;20848;-88
2021/06/28 03:48:41;;;;;;;2.67;2.00;;;;;;;;;;5065108;27;20382;-92
2021/06/28 03:51:20;;;;;;;2.70;1.58;;;;;;;;;;4952334;27;3185308;-87
2021/06/28 03:54:04;;;;;;;2.65;1.80;;;;;;;;;;4997672;28;20455;-91
2021/06/28 03:56:45;;;;;;;1.85;1.10;;;;;;;;;;5076504;27;20129;-90
2021/06/28 03:59:25;;;;;;;2.43;1.40;;;;;;;;;;4966260;27;4016265;-92
2021/06/28 04:02:17;;;;;;;1.60;1.20;;;;;;;;;;4979511;27;20416;-91
2021/06/28 04:05:00;;;;;;;1.80;1.50;;;;;;;;;;4992969;28;20509;-92
2021/06/28 04:07:45;;;;;;;1.67;1.27;;;;;;;;;;5078574;27;20394;-93
2021/06/28 04:10:27;;;;;;;1.58;0.90;;;;;;;;;;5049957;27;20882;-91
2021/06/28 04:13:07;;;;;;;1.73;1.00;;;;;;;;;;4935630;27;3301312;-90
2021/06/28 04:15:54;;;;;;;1.08;0.90;;;;;;;;;;5046728;27;20446;-88
2021/06/28 04:18:48;;;;;;;3.72;0.98;;;;;;;;;;5052393;28;20873;-90
2021/06/28 04:21:28;;;;;;;2.85;1.00;;;;;;;;;;5046678;28;20464;-91
2021/06/28 04:24:11;;;;;;;0.85;0.80;;;;;;;;;;5064454;28;20440;-93
2021/06/28 04:26:52;;;;;;;1.83;0.95;;;;;;;;;;4995584;28;20962;-91
2021/06/28 04:29:34;;;;;;;0.80;0.80;;;;;;;;;;5087055;27;20747;-95
2021/06/28 04:32:17;;;;;;;3.63;0.98;;;;;;;;;;5055023;27;20486;-88
2021/06/28 04:34:58;;;;;;;1.80;0.75;;;;;;;;;;5064539;27;20424;-90
2021/06/28 04:37:41;;;;;;;2.63;0.98;;;;;;;;;;5035353;27;20412;-93
2021/06/28 04:40:20;;;;;;;2.75;1.33;;;;;;;;;;4869604;27;6159405;-92
2021/06/28 04:43:00;;;;;;;0.70;0.68;;;;;;;;;;4997103;27;3141526;-92
2021/06/28 04:46:03;;;;;;;2.13;0.82;;;;;;;;;;5070468;27;20446;-96
2021/06/28 04:49:32;;;;;;;1.15;1.00;;;;;;;;;;5011477;28;20499;-96
2021/06/28 04:52:22;;;;;;;1.30;0.75;;;;;;;;;;4881181;27;3127606;-95
2021/06/28 04:55:10;;;;;;;1.25;0.70;;;;;;;;;;5127842;27;19923;-94
2021/06/28 04:57:52;;;;;;;1.80;0.80;;;;;;;;;;5033251;28;19924;-95
2021/06/28 05:00:30;;;;;;;1.65;0.70;;;;;;;;;;4977174;27;3142976;-95
2021/06/28 05:03:20;;;;;;;2.83;0.63;;;;;;;;;;5001966;28;20411;-94
2021/06/28 05:06:09;;;;;;;1.50;0.80;;;;;;;;;;5071019;27;20402;-94
2021/06/28 05:08:47;;;;;;;2.03;0.80;;;;;;;;;;4949302;27;3258290;-94
2021/06/28 05:11:24;;;;;;;1.65;0.73;;;;;;;;;;4938669;27;4179922;-88
2021/06/28 05:14:08;;;;;;;1.42;0.68;;;;;;;;;;5057223;27;20424;-93
2021/06/28 05:16:52;;;;;;;1.55;0.70;;;;;;;;;;5010430;27;20471;-94
2021/06/28 05:19:51;;;;;;;2.05;0.70;;;;;;;;;;5034252;28;20133;-93
2021/06/28 05:22:31;;;;;;;3.55;0.90;;;;;;;;;;4894923;27;3984448;-92
2021/06/28 05:25:11;;;;;;;1.10;0.70;;;;;;;;;;4958323;27;3162731;-91
2021/06/28 05:27:58;;;;;;;3.35;0.77;;;;;;;;;;5019686;27;20443;-91
2021/06/28 05:31:03;;;;;;;2.05;0.95;;;;;;;;;;4866770;27;4062788;-91
2021/06/28 05:33:47;;;;;;;1.95;1.02;;;;;;;;;;5099235;27;19931;-93
2021/06/28 05:36:29;;;;;;;1.38;0.70;;;;;;;;;;5053622;27;20455;-89
2021/06/28 05:39:10;;;;;;;1.40;0.70;;;;;;;;;;5034401;27;20458;-93
2021/06/28 05:41:49;;;;;;;1.55;0.57;;;;;;;;;;4924495;27;4041811;-92
2021/06/28 05:44:30;;;;;;;1.90;0.90;;;;;;;;;;5034525;28;20827;-90
2021/06/28 05:47:08;;;;;;;2.38;0.85;;;;;;;;;;4952398;27;3134631;-94
2021/06/28 05:50:24;;;;;;;1.85;0.80;;;;;;;;;;4900972;27;5221112;-90
2021/06/28 05:53:04;;;;;;;1.80;1.10;;;;;;;;;;4835652;27;7241961;-91
2021/06/28 05:55:49;;;;;;;2.55;0.80;;;;;;;;;;5071284;27;20406;-92
2021/06/28 05:58:29;;;;;;;3.15;1.10;;;;;;;;;;4878749;27;5874475;-93
2021/06/28 06:01:08;;;;;;;1.70;0.75;;;;;;;;;;4570297;27;15239745;-90
2021/06/28 06:03:50;;;;;;;2.33;0.82;;;;;;;;;;5069297;27;20421;-93
2021/06/28 06:06:29;;;;;;;1.90;0.70;;;;;;;;;;4974336;27;3901739;-94
2021/06/28 06:09:29;;;;;;;3.00;0.60;;;;;;;;;;4820631;27;7217278;-94
2021/06/28 06:12:15;;;;;;;0.93;0.60;;;;;;;;;;4960208;28;20443;-92
2021/06/28 06:14:55;;;;;;;1.35;0.80;;;;;;;;;;4942245;27;4143722;-93
2021/06/28 06:17:36;;;;;;;2.22;0.70;;;;;;;;;;5058927;27;20434;-91
2021/06/28 06:20:15;;;;;;;1.90;0.90;;;;;;;;;;4955828;27;2945258;-90
2021/06/28 06:22:58;;;;;;;2.08;0.70;;;;;;;;;;5065539;27;20488;-88
2021/06/28 06:25:46;;;;;;;1.63;0.70;;;;;;;;;;5062057;27;20372;-92
2021/06/28 06:28:28;;;;;;;1.90;0.70;;;;;;;;;;4913623;27;3290970;-92
2021/06/28 06:31:14;;;;;;;1.75;0.65;;;;;;;;;;4891427;27;4650882;-89
2021/06/28 06:33:57;;;;;;;1.20;0.82;;;;;;;;;;5059610;27;20407;-94
2021/06/28 06:36:41;;;;;;;1.90;0.80;;;;;;;;;;5008266;27;20429;-94
2021/06/28 06:39:34;;;;;;;1.67;1.05;;;;;;;;;;4599814;27;13544491;-93
2021/06/28 06:42:15;;;;;;;2.92;0.73;;;;;;;;;;5089795;27;20372;-94
2021/06/28 06:45:00;;;;;;;1.23;0.68;;;;;;;;;;5044089;27;20418;-94
2021/06/28 06:47:46;;;;;;;1.00;0.52;;;;;;;;;;4952737;27;3336243;-91
2021/06/28 06:50:41;;;;;;;1.10;0.65;;;;;;;;;;5080094;27;20137;-93
2021/06/28 06:53:23;;;;;;;0.90;0.50;;;;;;;;;;5002762;27;20530;-91
2021/06/28 06:56:05;;;;;;;3.07;0.80;;;;;;;;;;4940117;27;3313168;-87
2021/06/28 06:58:56;;;;;;;2.63;0.50;;;;;;;;;;5022840;27;20418;-93
2021/06/28 07:01:34;;;;;;;1.98;0.82;;;;;;;;;;4901678;27;4029776;-92
2021/06/28 07:04:19;;;;;;;0.45;0.45;;;;;;;;;;4941509;27;2907852;-92
2021/06/28 07:07:16;;;;;;;1.65;0.60;;;;;;;;;;5082189;27;20416;-93
2021/06/28 07:09:55;;;;;;;0.90;0.50;;;;;;;;;;4943647;27;2920275;-92
2021/06/28 07:12:37;;;;;;;3.47;1.10;;;;;;;;;;4994284;27;3332573;-90
2021/06/28 07:15:21;;;;;;;2.15;1.10;;;;;;;;;;4992345;27;20473;-94
2021/06/28 07:18:09;;;;;;;1.90;0.50;;;;;;;;;;5055446;27;20458;-89
2021/06/28 07:20:48;;;;;;;2.05;0.60;;;;;;;;;;4859158;27;5823182;-91
2021/06/28 07:23:30;;;;;;;2.33;0.80;;;;;;;;;;4984170;28;20481;-91
2021/06/28 07:26:10;;;;;;;3.03;0.68;;;;;;;;;;4808336;27;7467738;-92
2021/06/28 07:29:00;;;;;;;2.90;0.97;;;;;;;;;;4885997;28;3313076;-91
2021/06/28 07:31:47;;;;;;;3.10;0.60;;;;;;;;;;4980106;28;20473;-88
2021/06/28 07:34:31;;;;;;;1.58;0.40;;;;;;;;;;5026112;28;20950;-91
2021/06/28 07:37:14;;;;;;;2.03;0.50;;;;;;;;;;5046931;27;20448;-91
2021/06/28 07:40:05;;;;;;;1.55;0.43;;;;;;;;;;5075861;27;20133;-93
2021/06/28 07:42:51;;;;;;;1.05;0.70;;;;;;;;;;4988574;28;21528;-92
2021/06/28 07:45:30;;;;;;;1.73;0.70;;;;;;;;;;4905963;27;3915976;-90
2021/06/28 07:48:08;;;;;;;2.50;0.55;;;;;;;;;;4927350;27;2938129;-90
2021/06/28 07:50:59;;;;;;;2.17;0.50;;;;;;;;;;5038554;28;20881;-89
2021/06/28 07:53:47;;;;;;;0.73;0.40;;;;;;;;;;5021022;27;20461;-89
2021/06/28 07:56:25;;;;;;;1.85;0.57;;;;;;;;;;4932822;27;4821408;-89
2021/06/28 07:59:05;;;;;;;1.85;0.47;;;;;;;;;;5042006;27;20450;-90
2021/06/28 08:01:51;;;;;;;1.98;0.40;;;;;;;;;;5093623;27;20499;-91
2021/06/28 08:04:35;;;;;;;0.68;0.30;;;;;;;;;;5037907;27;20935;-88
2021/06/28 08:07:17;;;;;;;1.13;0.60;;;;;;;;;;4932625;27;3203125;-93
2021/06/28 08:09:55;;;;;;;1.55;0.50;;;;;;;;;;4831852;27;6001301;-90
2021/06/28 08:12:35;;;;;;;1.80;0.47;;;;;;;;;;4904254;27;4518474;-89
2021/06/28 08:15:19;;;;;;;3.58;0.55;;;;;;;;;;4967856;27;2932123;-93
2021/06/28 08:18:01;;;;;;;1.17;0.60;;;;;;;;;;4999035;27;20401;-93
2021/06/28 08:20:51;;;;;;;3.15;0.73;;;;;;;;;;5039012;27;21406;-96
2021/06/28 08:23:42;;;;;;;1.63;0.60;;;;;;;;;;5039451;27;20405;-95
2021/06/28 08:26:59;;;;;;;2.05;0.70;;;;;;;;;;5005989;28;22180;-93
2021/06/28 08:29:54;;;;;;;2.08;0.75;;;;;;;;;;4998179;27;20430;-89
2021/06/28 08:32:45;;;;;;;2.08;0.47;;;;;;;;;;4991136;27;20553;-94
2021/06/28 08:35:28;;;;;;;2.25;0.52;;;;;;;;;;4971791;27;3354994;-93
2021/06/28 08:38:08;;;;;;;1.25;0.50;;;;;;;;;;4895799;27;5158561;-94
2021/06/28 08:40:46;;;;;;;2.33;0.55;;;;;;;;;;4892936;27;5057929;-94
2021/06/28 08:43:32;;;;;;;0.55;0.40;;;;;;;;;;5067549;27;20395;-89
2021/06/28 08:46:18;;;;;;;3.65;0.70;;;;;;;;;;5101624;27;20417;-94
2021/06/28 08:48:59;;;;;;;3.40;0.93;;;;;;;;;;4920549;27;4239819;-92
2021/06/28 08:51:45;;;;;;;1.73;0.45;;;;;;;;;;5046975;27;20407;-92
2021/06/28 08:55:14;;;;;;;2.92;0.82;;;;;;;;;;4520072;27;13869284;-91
2021/06/28 08:58:15;;;;;;;6.30;1.10;;;;;;;;;;4994542;28;20407;-92
2021/06/28 09:00:59;;;;;;;2.92;0.80;;;;;;;;;;5066660;27;20964;-90
2021/06/28 09:03:49;;;;;;;2.15;0.90;;;;;;;;;;4989167;27;20844;-92
2021/06/28 09:06:26;;;;;;;3.55;1.10;;;;;;;;;;4928827;27;3922364;-89
2021/06/28 09:09:09;;;;;;;2.03;0.93;;;;;;;;;;5044676;28;20433;-93
2021/06/28 09:11:52;;;;;;;2.45;1.15;;;;;;;;;;5063007;27;20495;-94
2021/06/28 09:14:44;;;;;;;2.28;1.20;;;;;;;;;;5118711;27;20440;-92
2021/06/28 09:17:39;;;;;;;4.72;1.30;;;;;;;;;;5063202;28;20916;-88
2021/06/28 09:20:23;;;;;;;3.33;1.20;;;;;;;;;;5064035;28;20454;-89
2021/06/28 09:23:15;;;;;;;3.20;1.15;;;;;;;;;;5049334;28;20453;-92
2021/06/28 09:26:11;;;;;;;5.25;1.50;;;;;;;;;;4939925;27;4004916;-92
2021/06/28 09:29:08;;;;;;;5.90;1.70;;;;;;;;;;5049554;27;20150;-87
2021/06/28 09:31:51;;;;;;;5.32;1.67;;;;;;;;;;4640422;27;11532483;-86
2021/06/28 09:34:36;;;;;;;4.97;1.88;;;;;;;;;;4763263;27;7920701;-88
2021/06/28 09:37:16;;;;;;;4.38;1.80;;;;;;;;;;4925732;27;4002828;-91
2021/06/28 09:39:57;;;;;;;7.72;1.63;;;;;;;;;;5018114;27;2888179;-91
2021/06/28 09:42:26;;;;;;;6.45;1.45;;;;;;;;;;5120804;27;20095;-91
2021/06/28 09:45:15;;;;;;;4.47;2.13;;;;;;;;;;5005404;27;20899;-90
2021/06/28 09:47:57;;;;;;;4.82;1.90;;;;;;;;;;4943228;27;4069144;-90
2021/06/28 09:50:49;;;;;;;4.57;2.50;;;;;;;;;;5000790;28;20979;-94
2021/06/28 09:53:48;;;;;;;5.18;2.53;;;;;;;;;;5138579;27;20413;-87
2021/06/28 09:56:50;;;;;;;5.05;2.97;;;;;;;;;;5010837;28;20398;-94
2021/06/28 09:59:48;;;;;;;6.15;2.88;;;;;;;;;;5022586;27;20441;-95
2021/06/28 10:02:41;;;;;;;6.38;2.40;;;;;;;;;;5031487;27;20489;-93
2021/06/28 10:05:51;;;;;;;5.88;2.20;;;;;;;;;;5130436;27;20437;-92
2021/06/28 10:09:02;;;;;;;4.68;2.40;;;;;;;;;;5093750;27;20186;-96
2021/06/28 10:11:56;;;;;;;5.57;1.80;;;;;;;;;;5031199;27;20453;-96
2021/06/28 10:14:32;;;;;;;4.77;1.60;;;;;;;;;;4499104;27;18019372;-96
2021/06/28 10:17:28;;;;;;;6.05;2.40;;;;;;;;;;5044106;27;20486;-95
2021/06/28 10:20:29;;;;;;;7.10;2.63;;;;;;;;;;4842055;28;271033;-96
2021/06/28 10:23:21;;;;;;;4.05;2.10;;;;;;;;;;4964173;27;32302;-95
2021/06/28 10:27:52;;;;;;;5.70;2.25;;;;;;;;;;5175819;27;20383;-89
2021/06/28 10:30:29;;;;;;;4.20;2.15;;;;;;;;;;3947301;27;30509816;-91
2021/06/28 10:33:26;;;;;;;4.28;1.60;;;;;;;;;;5146402;27;20392;-90
2021/06/28 10:36:04;;;;;;;5.22;2.25;;;;;;;;;;4618812;27;15249696;-85
2021/06/28 10:39:07;;;;;;;7.45;3.03;;;;;;;;;;4998844;28;20133;-94
2021/06/28 10:42:10;;;;;;;7.35;2.85;;;;;;;;;;5093797;27;20410;-93
2021/06/28 10:44:50;;;;;;;4.53;2.85;;;;;;;;;;4701172;27;11943985;-89
2021/06/28 10:47:37;;;;;;;6.07;3.08;;;;;;;;;;5093298;27;20442;-93
2021/06/28 10:50:25;;;;;;;11.95;3.40;;;;;;;;;;5007150;27;3266051;-90
2021/06/28 10:53:33;;;;;;;8.13;3.20;;;;;;;;;;5001472;27;543398;-92
2021/06/28 10:56:31;;;;;;;7.65;2.97;;;;;;;;;;5032408;28;20052;-88
2021/06/28 10:59:18;;;;;;;7.97;2.58;;;;;;;;;;4962034;28;20089;-89
2021/06/28 11:02:04;;;;;;;4.88;2.30;;;;;;;;;;5010632;28;20116;-87
2021/06/28 11:04:56;;;;;;;7.47;2.25;;;;;;;;;;4987043;28;20101;-86
2021/06/28 11:07:45;;;;;;;6.00;2.00;;;;;;;;;;4959831;28;20045;-88
2021/06/28 11:10:37;;;;;;;7.18;1.90;;;;;;;;;;5000412;28;20037;-88
2021/06/28 11:13:36;;;;;;;7.00;2.72;;;;;;;;;;5002492;28;20052;-87
2021/06/28 11:16:33;;;;;;;5.47;2.60;;;;;;;;;;4987499;28;20036;-87
2021/06/28 11:22:43;;;;;;;6.35;2.80;;;;;;;;;;4975367;28;20067;-88
2021/06/28 11:25:26;;;;;;;7.35;2.80;;;;;;;;;;4946249;28;20503;-90
2021/06/28 11:28:42;;;;;;;7.90;2.53;;;;;;;;;;5144083;27;20927;-88
2021/06/28 11:31:31;;;;;;;7.32;2.78;;;;;;;;;;4343542;27;22023917;-87
2021/06/28 11:34:45;;;;;;;6.45;2.00;;;;;;;;;;5098188;27;20906;-87
2021/06/28 11:37:14;;;;;;;6.35;2.17;;;;;;;;;;5031227;28;20250;-87
2021/06/28 11:40:04;;;;;;;5.93;2.25;;;;;;;;;;5077087;28;20112;-85
2021/06/28 11:43:06;;;;;;;7.90;2.33;;;;;;;;;;5004763;27;20404;-86
2021/06/28 11:46:15;;;;;;;4.65;2.33;;;;;;;;;;5062621;27;20401;-85
2021/06/28 11:49:38;;;;;;;9.18;2.28;;;;;;;;;;5064348;27;20939;-89
